首页
METAR-TAF:

METAR-TAF

机场 :

摩根堡, 科羅拉多州, 美国

纬度: 40-20-02N, 经度: 103-48-15W, 海拔: 1393米

当前天气观测

该预报发布于11分钟前的13:55 UTC
风速6节,风向西南
温度 -2°C
湿度 69%
气压 1017 hPa
能見度: 16.1公里
阴天层高于9500英尺

METAR: KFMM 211355Z AUTO 22006KT 10SM OVC095 M02/M07 A3003 RMK AO2 T10211074

时间: 07:06 (14:06 UTC)


TAF: 丢失

超过4000个机场的气象观测和天气预报(METAR&TAF报告)。

可查询的气象台以黄色和红色小点在地图上表示。

将鼠标移到小点上方,可查看气象台名称。

然后点击查看天气观测和预报。

如需切换地图:点击带黑十字的绿色按钮放大地图;点击带横线的绿色按钮缩小地图;或者点击绿色箭头查看邻近地区的地图。


METAR-TAF: